Singleton, New South Wales

1:24 PM AEST on October 02, 2014 (GMT +1000)
Singleton High School | Change Station
CLOSE
Current Station
Personal Weather Station
Location: SINGLETON, NSW
Elevation: 148 ft
Nearby Weather Stations

Elev 148 ft 32.57 °S, 151.18 °E | Updated 9 minutes ago

Clear
Clear
75.1 °F
Feels Like 77 °F
N
2.0
Wind Variable Wind from NNW
Gusts 9.0 mph

Today
High -- | Low -- °F
--% Chance of Precip.
Yesterday
High -- | Low -- °F
Precip. -- in
5:32 AM 5:57 PM
First Quarter, 54% visible
Pressure 30.06 in
Visibility -9999.0 miles
Clouds
Heat Index 77 °F
Dew Point 42 °F
Humidity 31%
Rainfall -999.00 in
Snow Depth Not available.
UV Not available.
Pollen Not available.
Air Quality Not available.
Flu Activity Not available.
METAR YWLM 010330Z 17021KT CAVOK 20/00 Q1018

More Conditions Fewer Conditions

Pressure 30.06 in
Visibility -9999.0 miles
Clouds
Heat Index 77 °F
Dew Point 42 °F
Humidity 31%
Rainfall -999.00 in
Snow Depth Not available.
UV Not available.
Pollen Not available.
Air Quality Not available.
Flu Activity Not available.
METAR YWLM 010330Z 17021KT CAVOK 20/00 Q1018

More Conditions Fewer Conditions

10-Day Weather Forecast

Almanac

Astronomy

Oct. 02, 2014 Rise Set
Actual Time 5:32 AM AEST 5:57 PM AEST
Civil Twilight 5:07 AM AEST 6:22 PM AEST
Nautical Twilight 4:38 AM AEST 6:51 PM AEST
Astronomical Twilight 4:09 AM AEST 7:21 PM AEST
Moon 11:16 AM AEST 12:26 AM AEST
Length of Visible Light 13h 14m
Length of Day
12h 25m
Tomorrow will be 2m 0s longer.
First Quarter, 54% of the Moon is Illuminated
Oct 1
First Quarter
Oct 8
Full
Oct 15
Last Quarter
Oct 23
New
Oct 30
First Quarter

Yesterday's Extremes

Country Highs Country Lows

Community

WunderPhotos

Upload Photos

1,758,161 photos uploaded!

WunderBlogs® & News

Nearby

Snow Depth

Not available.

Earthquake Activity

City Distance Mag. Time & Date
No recent earthquake activity has been reported nearby.
Minimum magnitude displayed is 2.5.

Coastal Water Temperatures

Place Temperature
No Stations Reporting

Nearby Weather Stations